UTDDUTDL

Guest
Details From UTDD - DUSHANBE
To UTDL - KHUDZHAND
Flight Number -
Tags generated
Created
Modified
Stats Distance 109 nm / 202 km
Max Altitude 11,200 ft / 3,414 m
Waypoints 3
Social Downloads 0
Likes 0
Share VATSIM

Download

Looking for another format? Having issues loading an existing format? Contact us
Advertisement - Login to hide

Notes

Basic altitude profile: - Ascent Rate: 2500ft/min - Ascent Speed: 250kts - Cruise Altitude: 35000ft - Cruise Speed: 420kts - Descent Rate: 1500ft/min - Descent Speed: 250kts Options: - Use NATs: yes - Use PACOTS: yes - Use low airways: yes - Use high airways: yes

Route

UTDD ZENAL UTDL

ID Type Via Altitude Latitude Longitude Leg Dist Tot Dist Heading (true) Name
O UTDD APT - 0 ft / 0 m 38.54349˚ 68.82464˚ - 0 nm - DUSHANBE
ZENAL FIX - 11,200 ft / 3,414 m 39.37000˚ 69.11667˚ 51 nm 51 nm 15° / 15° -
O UTDL APT - 0 ft / 0 m 40.21540˚ 69.69471˚ 57 nm 108 nm 28° / 28° KHUDZHAND

Altitude Profile

Advertisement - Login to hide

UTDD

Details ICAO UTDD (DYU)
Name DUSHANBE
Region Tajikistan, Turkmenistan and Uzbekistan
Timezone Asia/Dushanbe (UTC+5.0)
Stats Elevation 2,575 ft / 785 m (AMSL)
Location 38.543486° 68.824637°
Runways 1
Magnetic Variation 4.469° E

METAR

UTDD 242230Z VRB01MPS 9999 NSC 15/11 Q1013 R09/D NOSIG RMK QFE692/0922

Decode

TAF

TAF TAF UTDD 242100Z 2422/2510 VRB02MPS 7000 FEW066CB SCT150

Decode

Departure Runways

ID Width Length Bearing (true) Bearing (mag) Surface Threshold Offset Overrun Length
09 147 ft / 45 m 10,157 ft / 3,096 m 90.06° 85.59° Asphalt 0 ft / 0 m 0 ft / 0 m
27 147 ft / 45 m 10,157 ft / 3,096 m 270.08° 265.61° Asphalt 1,335 ft / 407 m 0 ft / 0 m

UTDL

Details ICAO UTDL (LBD)
Name KHUDZHAND
Region Tajikistan, Turkmenistan and Uzbekistan
Timezone Asia/Dushanbe (UTC+5.0)
Stats Elevation 1,450 ft / 442 m (AMSL)
Location 40.215396° 69.694708°
Runways 1
Magnetic Variation 4.988° E

METAR

UTDL 242230Z 24003MPS 9999 NSC 15/08 Q1014 R26/CLRD70 NOSIG RMK QFE723/0964

Decode

TAF

Not found

Destination Runways

ID Width Length Bearing (true) Bearing (mag) Surface Threshold Offset Overrun Length
08 164 ft / 50 m 10,427 ft / 3,178 m 82.16° 77.17° Asphalt 975 ft / 297 m 210 ft / 64 m
26 164 ft / 50 m 10,427 ft / 3,178 m 262.18° 257.19° Asphalt 975 ft / 297 m 250 ft / 76 m

Popular Alternatives